sensor_id;sensor_type;location;lat;lon;timestamp;pressure;altitude;pressure_sealevel;temperature;humidity
62038;BME280;47991;42.974;12.082;2024-03-08T00:01:39;97784.56;;;2.03;89.63
62038;BME280;47991;42.974;12.082;2024-03-08T00:04:08;97785.42;;;2.03;89.20
62038;BME280;47991;42.974;12.082;2024-03-08T00:06:35;97785.45;;;2.05;89.45
62038;BME280;47991;42.974;12.082;2024-03-08T00:09:03;97782.67;;;2.09;89.66
62038;BME280;47991;42.974;12.082;2024-03-08T00:11:34;97782.16;;;2.10;89.83
62038;BME280;47991;42.974;12.082;2024-03-08T00:14:02;97781.46;;;2.11;90.31
62038;BME280;47991;42.974;12.082;2024-03-08T00:16:34;97780.76;;;2.08;89.58
62038;BME280;47991;42.974;12.082;2024-03-08T00:19:05;97777.41;;;2.00;89.85
62038;BME280;47991;42.974;12.082;2024-03-08T00:21:32;97775.79;;;1.94;90.11
62038;BME280;47991;42.974;12.082;2024-03-08T00:23:59;97779.60;;;1.92;90.61
62038;BME280;47991;42.974;12.082;2024-03-08T00:26:26;97780.63;;;1.87;91.77
62038;BME280;47991;42.974;12.082;2024-03-08T00:28:53;97783.94;;;1.86;91.03
62038;BME280;47991;42.974;12.082;2024-03-08T00:31:20;97782.91;;;1.91;91.21
62038;BME280;47991;42.974;12.082;2024-03-08T00:33:48;97783.65;;;1.97;91.03
62038;BME280;47991;42.974;12.082;2024-03-08T00:36:15;97781.40;;;2.00;90.76
62038;BME280;47991;42.974;12.082;2024-03-08T00:38:42;97781.20;;;1.95;90.59
62038;BME280;47991;42.974;12.082;2024-03-08T00:41:09;97781.15;;;1.87;90.40
62038;BME280;47991;42.974;12.082;2024-03-08T00:43:36;97780.60;;;1.83;90.64
62038;BME280;47991;42.974;12.082;2024-03-08T00:46:03;97779.90;;;1.83;90.31
62038;BME280;47991;42.974;12.082;2024-03-08T00:48:30;97779.94;;;1.86;90.30
62038;BME280;47991;42.974;12.082;2024-03-08T00:50:57;97774.02;;;1.91;90.61
62038;BME280;47991;42.974;12.082;2024-03-08T00:53:25;97775.61;;;1.93;90.52
62038;BME280;47991;42.974;12.082;2024-03-08T00:55:52;97771.91;;;1.87;90.92
62038;BME280;47991;42.974;12.082;2024-03-08T00:58:19;97775.17;;;1.79;90.42
62038;BME280;47991;42.974;12.082;2024-03-08T01:00:46;97772.52;;;1.73;91.33
62038;BME280;47991;42.974;12.082;2024-03-08T01:03:13;97768.67;;;1.72;90.95
62038;BME280;47991;42.974;12.082;2024-03-08T01:05:40;97765.57;;;1.76;90.64
62038;BME280;47991;42.974;12.082;2024-03-08T01:08:08;97763.33;;;1.79;90.64
62038;BME280;47991;42.974;12.082;2024-03-08T01:10:37;97762.60;;;1.76;90.51
62038;BME280;47991;42.974;12.082;2024-03-08T01:13:05;97764.50;;;1.72;90.90
62038;BME280;47991;42.974;12.082;2024-03-08T01:15:32;97759.40;;;1.67;91.07
62038;BME280;47991;42.974;12.082;2024-03-08T01:17:59;97759.75;;;1.65;91.02
62038;BME280;47991;42.974;12.082;2024-03-08T01:20:28;97754.16;;;1.66;90.96
62038;BME280;47991;42.974;12.082;2024-03-08T01:22:55;97752.61;;;1.65;90.69
62038;BME280;47991;42.974;12.082;2024-03-08T01:25:23;97749.83;;;1.67;90.89
62038;BME280;47991;42.974;12.082;2024-03-08T01:27:50;97749.31;;;1.70;91.46
62038;BME280;47991;42.974;12.082;2024-03-08T01:30:17;97746.15;;;1.65;91.69
62038;BME280;47991;42.974;12.082;2024-03-08T01:32:44;97742.31;;;1.64;91.02
62038;BME280;47991;42.974;12.082;2024-03-08T01:35:11;97739.35;;;1.64;91.35
62038;BME280;47991;42.974;12.082;2024-03-08T01:37:38;97733.55;;;1.58;92.65
62038;BME280;47991;42.974;12.082;2024-03-08T01:40:08;97738.45;;;1.59;91.90
62038;BME280;47991;42.974;12.082;2024-03-08T01:42:39;97735.31;;;1.58;91.19
62038;BME280;47991;42.974;12.082;2024-03-08T01:45:08;97738.39;;;1.53;91.31
62038;BME280;47991;42.974;12.082;2024-03-08T01:47:35;97737.85;;;1.48;91.31
62038;BME280;47991;42.974;12.082;2024-03-08T01:50:04;97733.65;;;1.46;91.43
62038;BME280;47991;42.974;12.082;2024-03-08T01:52:34;97729.64;;;1.45;91.75
62038;BME280;47991;42.974;12.082;2024-03-08T01:55:02;97728.05;;;1.43;91.34
62038;BME280;47991;42.974;12.082;2024-03-08T01:57:36;97729.61;;;1.42;91.07
62038;BME280;47991;42.974;12.082;2024-03-08T02:00:06;97728.90;;;1.39;91.11
62038;BME280;47991;42.974;12.082;2024-03-08T02:02:37;97729.68;;;1.28;90.97
62038;BME280;47991;42.974;12.082;2024-03-08T02:05:04;97731.52;;;1.19;91.06
62038;BME280;47991;42.974;12.082;2024-03-08T02:07:32;97729.58;;;1.13;91.27
62038;BME280;47991;42.974;12.082;2024-03-08T02:09:58;97727.13;;;1.13;92.58
62038;BME280;47991;42.974;12.082;2024-03-08T02:12:26;97730.45;;;1.15;92.50
62038;BME280;47991;42.974;12.082;2024-03-08T02:14:53;97730.42;;;1.11;91.91
62038;BME280;47991;42.974;12.082;2024-03-08T02:17:20;97729.49;;;1.04;91.56
62038;BME280;47991;42.974;12.082;2024-03-08T02:19:47;97726.61;;;0.94;91.78
62038;BME280;47991;42.974;12.082;2024-03-08T02:22:14;97726.95;;;0.92;91.45
62038;BME280;47991;42.974;12.082;2024-03-08T02:24:42;97726.80;;;0.95;91.85
62038;BME280;47991;42.974;12.082;2024-03-08T02:27:08;97730.64;;;0.97;91.38
62038;BME280;47991;42.974;12.082;2024-03-08T02:29:39;97725.77;;;0.96;91.13
62038;BME280;47991;42.974;12.082;2024-03-08T02:32:07;97727.63;;;0.89;90.78
62038;BME280;47991;42.974;12.082;2024-03-08T02:34:34;97729.20;;;0.91;90.65
62038;BME280;47991;42.974;12.082;2024-03-08T02:37:01;97727.81;;;0.91;91.37
62038;BME280;47991;42.974;12.082;2024-03-08T02:39:28;97726.98;;;0.94;92.05
62038;BME280;47991;42.974;12.082;2024-03-08T02:41:55;97725.45;;;1.01;91.87
62038;BME280;47991;42.974;12.082;2024-03-08T02:44:22;97722.00;;;1.03;91.82
62038;BME280;47991;42.974;12.082;2024-03-08T02:46:50;97723.73;;;1.03;91.08
62038;BME280;47991;42.974;12.082;2024-03-08T02:49:17;97720.59;;;1.01;91.86
62038;BME280;47991;42.974;12.082;2024-03-08T02:51:44;97717.31;;;1.06;91.52
62038;BME280;47991;42.974;12.082;2024-03-08T02:54:12;97715.28;;;1.12;91.57
62038;BME280;47991;42.974;12.082;2024-03-08T02:56:40;97713.75;;;1.16;91.74
62038;BME280;47991;42.974;12.082;2024-03-08T02:59:08;97714.28;;;1.18;92.37
62038;BME280;47991;42.974;12.082;2024-03-08T03:01:35;97714.99;;;1.19;91.85
62038;BME280;47991;42.974;12.082;2024-03-08T03:04:03;97720.04;;;1.19;91.54
62038;BME280;47991;42.974;12.082;2024-03-08T03:06:30;97716.55;;;1.18;91.92
62038;BME280;47991;42.974;12.082;2024-03-08T03:08:57;97716.19;;;1.17;92.03
62038;BME280;47991;42.974;12.082;2024-03-08T03:11:25;97714.81;;;1.18;92.18
62038;BME280;47991;42.974;12.082;2024-03-08T03:13:52;97715.34;;;1.20;92.49
62038;BME280;47991;42.974;12.082;2024-03-08T03:16:19;97714.11;;;1.19;92.41
62038;BME280;47991;42.974;12.082;2024-03-08T03:18:47;97714.80;;;1.18;92.18
62038;BME280;47991;42.974;12.082;2024-03-08T03:21:14;97710.81;;;1.19;92.37
62038;BME280;47991;42.974;12.082;2024-03-08T03:23:41;97713.77;;;1.20;92.45
62038;BME280;47991;42.974;12.082;2024-03-08T03:26:11;97714.31;;;1.21;92.60
62038;BME280;47991;42.974;12.082;2024-03-08T03:28:39;97720.23;;;1.21;92.43
62038;BME280;47991;42.974;12.082;2024-03-08T03:31:07;97715.85;;;1.18;92.58
62038;BME280;47991;42.974;12.082;2024-03-08T03:33:34;97718.27;;;1.16;93.40
62038;BME280;47991;42.974;12.082;2024-03-08T03:36:01;97718.62;;;1.17;93.63
62038;BME280;47991;42.974;12.082;2024-03-08T03:38:28;97719.18;;;1.20;93.34
62038;BME280;47991;42.974;12.082;2024-03-08T03:40:55;97718.01;;;1.25;93.35
62038;BME280;47991;42.974;12.082;2024-03-08T03:43:24;97716.66;;;1.33;93.07
62038;BME280;47991;42.974;12.082;2024-03-08T03:45:51;97716.02;;;1.41;93.46
62038;BME280;47991;42.974;12.082;2024-03-08T03:48:17;97719.52;;;1.42;94.17
62038;BME280;47991;42.974;12.082;2024-03-08T03:50:44;97722.69;;;1.46;93.81
62038;BME280;47991;42.974;12.082;2024-03-08T03:53:14;97716.43;;;1.50;93.94
62038;BME280;47991;42.974;12.082;2024-03-08T03:55:41;97718.89;;;1.54;93.74
62038;BME280;47991;42.974;12.082;2024-03-08T03:58:09;97721.85;;;1.54;94.24
62038;BME280;47991;42.974;12.082;2024-03-08T04:00:41;97720.29;;;1.54;93.77
62038;BME280;47991;42.974;12.082;2024-03-08T04:03:07;97719.58;;;1.52;94.27
62038;BME280;47991;42.974;12.082;2024-03-08T04:05:35;97719.77;;;1.52;94.64
62038;BME280;47991;42.974;12.082;2024-03-08T04:08:02;97717.15;;;1.54;94.57
62038;BME280;47991;42.974;12.082;2024-03-08T04:10:30;97715.95;;;1.56;94.27
62038;BME280;47991;42.974;12.082;2024-03-08T04:12:57;97718.23;;;1.56;95.13
62038;BME280;47991;42.974;12.082;2024-03-08T04:15:24;97722.39;;;1.56;95.06
62038;BME280;47991;42.974;12.082;2024-03-08T04:17:54;97722.57;;;1.55;94.83
62038;BME280;47991;42.974;12.082;2024-03-08T04:20:24;97725.20;;;1.58;95.14
62038;BME280;47991;42.974;12.082;2024-03-08T04:22:53;97726.94;;;1.57;96.37
62038;BME280;47991;42.974;12.082;2024-03-08T04:25:20;97723.48;;;1.60;95.54
62038;BME280;47991;42.974;12.082;2024-03-08T04:27:47;97721.05;;;1.63;96.10
62038;BME280;47991;42.974;12.082;2024-03-08T04:30:16;97720.36;;;1.64;96.27
62038;BME280;47991;42.974;12.082;2024-03-08T04:32:44;97722.47;;;1.68;96.63
62038;BME280;47991;42.974;12.082;2024-03-08T04:35:11;97721.11;;;1.73;97.11
62038;BME280;47991;42.974;12.082;2024-03-08T04:37:39;97721.65;;;1.78;98.66
62038;BME280;47991;42.974;12.082;2024-03-08T04:40:06;97721.15;;;1.80;97.97
62038;BME280;47991;42.974;12.082;2024-03-08T04:42:37;97720.64;;;1.81;97.50
62038;BME280;47991;42.974;12.082;2024-03-08T04:45:08;97713.15;;;1.82;97.41
62038;BME280;47991;42.974;12.082;2024-03-08T04:47:37;97718.54;;;1.84;97.49
62038;BME280;47991;42.974;12.082;2024-03-08T04:50:05;97716.13;;;1.86;97.25
62038;BME280;47991;42.974;12.082;2024-03-08T04:52:32;97716.14;;;1.88;97.14
62038;BME280;47991;42.974;12.082;2024-03-08T04:55:00;97713.17;;;1.89;96.87
62038;BME280;47991;42.974;12.082;2024-03-08T04:57:26;97720.47;;;1.85;98.58
62038;BME280;47991;42.974;12.082;2024-03-08T04:59:54;97721.50;;;1.81;98.70
62038;BME280;47991;42.974;12.082;2024-03-08T05:02:21;97723.22;;;1.78;98.93
62038;BME280;47991;42.974;12.082;2024-03-08T05:04:49;97725.11;;;1.72;100.00
62038;BME280;47991;42.974;12.082;2024-03-08T05:07:16;97727.91;;;1.73;100.00
62038;BME280;47991;42.974;12.082;2024-03-08T05:09:43;97729.84;;;1.77;100.00
62038;BME280;47991;42.974;12.082;2024-03-08T05:12:18;97728.46;;;1.77;100.00
62038;BME280;47991;42.974;12.082;2024-03-08T05:14:46;97728.80;;;1.78;99.70
62038;BME280;47991;42.974;12.082;2024-03-08T05:17:16;97727.60;;;1.81;100.00
62038;BME280;47991;42.974;12.082;2024-03-08T05:19:43;97726.74;;;1.82;100.00
62038;BME280;47991;42.974;12.082;2024-03-08T05:22:11;97733.02;;;1.82;99.99
62038;BME280;47991;42.974;12.082;2024-03-08T05:24:38;97731.77;;;1.79;99.94
62038;BME280;47991;42.974;12.082;2024-03-08T05:27:05;97727.55;;;1.71;99.83
62038;BME280;47991;42.974;12.082;2024-03-08T05:29:32;97726.85;;;1.72;99.49
62038;BME280;47991;42.974;12.082;2024-03-08T05:32:00;97724.93;;;1.71;99.24
62038;BME280;47991;42.974;12.082;2024-03-08T05:34:28;97732.63;;;1.76;99.21
62038;BME280;47991;42.974;12.082;2024-03-08T05:36:56;97737.35;;;1.78;98.70
62038;BME280;47991;42.974;12.082;2024-03-08T05:39:24;97735.23;;;1.72;99.20
62038;BME280;47991;42.974;12.082;2024-03-08T05:41:51;97732.38;;;1.64;100.00
62038;BME280;47991;42.974;12.082;2024-03-08T05:44:18;97734.66;;;1.65;100.00
62038;BME280;47991;42.974;12.082;2024-03-08T05:46:45;97738.34;;;1.67;100.00
62038;BME280;47991;42.974;12.082;2024-03-08T05:49:16;97740.25;;;1.71;99.98
62038;BME280;47991;42.974;12.082;2024-03-08T05:51:43;97741.49;;;1.74;99.23
62038;BME280;47991;42.974;12.082;2024-03-08T05:54:11;97740.39;;;1.65;100.00
62038;BME280;47991;42.974;12.082;2024-03-08T05:56:39;97738.27;;;1.58;100.00
62038;BME280;47991;42.974;12.082;2024-03-08T05:59:11;97743.33;;;1.58;100.00
62038;BME280;47991;42.974;12.082;2024-03-08T06:01:38;97748.75;;;1.62;100.00
62038;BME280;47991;42.974;12.082;2024-03-08T06:04:07;97750.70;;;1.67;99.90
62038;BME280;47991;42.974;12.082;2024-03-08T06:06:35;97749.14;;;1.70;100.00
62038;BME280;47991;42.974;12.082;2024-03-08T06:09:04;97748.09;;;1.70;100.00
62038;BME280;47991;42.974;12.082;2024-03-08T06:11:38;97750.84;;;1.61;100.00
62038;BME280;47991;42.974;12.082;2024-03-08T06:14:05;97747.15;;;1.59;100.00
62038;BME280;47991;42.974;12.082;2024-03-08T06:16:32;97752.89;;;1.56;100.00
62038;BME280;47991;42.974;12.082;2024-03-08T06:19:00;97760.39;;;1.59;100.00
62038;BME280;47991;42.974;12.082;2024-03-08T06:21:29;97759.53;;;1.60;100.00
62038;BME280;47991;42.974;12.082;2024-03-08T06:23:56;97757.83;;;1.65;100.00
62038;BME280;47991;42.974;12.082;2024-03-08T06:26:24;97756.44;;;1.66;100.00
62038;BME280;47991;42.974;12.082;2024-03-08T06:28:52;97757.97;;;1.61;100.00
62038;BME280;47991;42.974;12.082;2024-03-08T06:31:19;97759.18;;;1.60;100.00
62038;BME280;47991;42.974;12.082;2024-03-08T06:33:46;97759.17;;;1.59;100.00
62038;BME280;47991;42.974;12.082;2024-03-08T06:36:16;97764.05;;;1.58;100.00
62038;BME280;47991;42.974;12.082;2024-03-08T06:38:51;97758.34;;;1.62;100.00
62038;BME280;47991;42.974;12.082;2024-03-08T06:41:18;97759.21;;;1.63;100.00
62038;BME280;47991;42.974;12.082;2024-03-08T06:43:46;97754.86;;;1.64;100.00
62038;BME280;47991;42.974;12.082;2024-03-08T06:46:15;97754.02;;;1.67;100.00
62038;BME280;47991;42.974;12.082;2024-03-08T06:48:42;97755.09;;;1.72;100.00
62038;BME280;47991;42.974;12.082;2024-03-08T06:51:09;97760.64;;;1.69;100.00
62038;BME280;47991;42.974;12.082;2024-03-08T06:53:37;97758.70;;;1.65;100.00
62038;BME280;47991;42.974;12.082;2024-03-08T06:56:05;97754.72;;;1.69;100.00
62038;BME280;47991;42.974;12.082;2024-03-08T06:58:32;97753.73;;;1.76;100.00
62038;BME280;47991;42.974;12.082;2024-03-08T07:00:59;97753.73;;;1.78;100.00
62038;BME280;47991;42.974;12.082;2024-03-08T07:03:27;97748.70;;;1.82;100.00
62038;BME280;47991;42.974;12.082;2024-03-08T07:05:56;97754.69;;;1.95;100.00
62038;BME280;47991;42.974;12.082;2024-03-08T07:08:26;97762.58;;;2.02;100.00
62038;BME280;47991;42.974;12.082;2024-03-08T07:10:54;97765.94;;;2.10;100.00
62038;BME280;47991;42.974;12.082;2024-03-08T07:13:21;97767.16;;;2.11;100.00
62038;BME280;47991;42.974;12.082;2024-03-08T07:15:48;97766.52;;;2.18;100.00
62038;BME280;47991;42.974;12.082;2024-03-08T07:18:15;97766.20;;;2.27;100.00
62038;BME280;47991;42.974;12.082;2024-03-08T07:20:42;97767.07;;;2.27;100.00
62038;BME280;47991;42.974;12.082;2024-03-08T07:23:10;97770.54;;;2.22;100.00
62038;BME280;47991;42.974;12.082;2024-03-08T07:25:37;97769.69;;;2.29;100.00
62038;BME280;47991;42.974;12.082;2024-03-08T07:28:05;97767.64;;;2.38;100.00
62038;BME280;47991;42.974;12.082;2024-03-08T07:30:33;97770.11;;;2.47;100.00
62038;BME280;47991;42.974;12.082;2024-03-08T07:33:12;97765.96;;;2.55;100.00
62038;BME280;47991;42.974;12.082;2024-03-08T07:35:40;97767.19;;;2.58;100.00
62038;BME280;47991;42.974;12.082;2024-03-08T07:38:08;97767.36;;;2.62;100.00
62038;BME280;47991;42.974;12.082;2024-03-08T07:40:40;97770.34;;;2.61;100.00
62038;BME280;47991;42.974;12.082;2024-03-08T07:43:12;97771.06;;;2.70;100.00
62038;BME280;47991;42.974;12.082;2024-03-08T07:45:39;97773.54;;;2.80;100.00
62038;BME280;47991;42.974;12.082;2024-03-08T07:48:07;97780.34;;;2.77;100.00
62038;BME280;47991;42.974;12.082;2024-03-08T07:50:37;97775.95;;;2.70;100.00
62038;BME280;47991;42.974;12.082;2024-03-08T07:53:06;97772.83;;;2.78;100.00
62038;BME280;47991;42.974;12.082;2024-03-08T07:55:34;97770.93;;;2.88;100.00
62038;BME280;47991;42.974;12.082;2024-03-08T07:58:02;97775.10;;;2.80;100.00
62038;BME280;47991;42.974;12.082;2024-03-08T08:00:32;97778.44;;;2.83;100.00
62038;BME280;47991;42.974;12.082;2024-03-08T08:02:59;97776.01;;;2.90;100.00
62038;BME280;47991;42.974;12.082;2024-03-08T08:05:27;97772.01;;;3.00;100.00
62038;BME280;47991;42.974;12.082;2024-03-08T08:07:54;97774.99;;;3.09;100.00
62038;BME280;47991;42.974;12.082;2024-03-08T08:10:21;97773.42;;;3.17;100.00
62038;BME280;47991;42.974;12.082;2024-03-08T08:12:49;97773.44;;;3.30;100.00
62038;BME280;47991;42.974;12.082;2024-03-08T08:15:16;97772.73;;;3.41;100.00
62038;BME280;47991;42.974;12.082;2024-03-08T08:17:46;97777.29;;;3.58;100.00
62038;BME280;47991;42.974;12.082;2024-03-08T08:20:13;97774.47;;;3.72;100.00
62038;BME280;47991;42.974;12.082;2024-03-08T08:22:41;97763.77;;;3.92;100.00
62038;BME280;47991;42.974;12.082;2024-03-08T08:25:10;97765.30;;;4.11;100.00
62038;BME280;47991;42.974;12.082;2024-03-08T08:27:40;97766.84;;;4.21;100.00
62038;BME280;47991;42.974;12.082;2024-03-08T08:30:07;97765.77;;;4.33;100.00
62038;BME280;47991;42.974;12.082;2024-03-08T08:32:35;97762.94;;;4.41;100.00
62038;BME280;47991;42.974;12.082;2024-03-08T08:35:08;97758.52;;;4.53;100.00
62038;BME280;47991;42.974;12.082;2024-03-08T08:37:38;97761.92;;;4.69;100.00
62038;BME280;47991;42.974;12.082;2024-03-08T08:40:07;97762.56;;;4.81;100.00
62038;BME280;47991;42.974;12.082;2024-03-08T08:42:40;97765.33;;;4.89;100.00
62038;BME280;47991;42.974;12.082;2024-03-08T08:45:09;97763.04;;;4.89;100.00
62038;BME280;47991;42.974;12.082;2024-03-08T08:47:36;97761.99;;;4.89;100.00
62038;BME280;47991;42.974;12.082;2024-03-08T08:50:04;97760.04;;;4.94;100.00
62038;BME280;47991;42.974;12.082;2024-03-08T08:52:32;97756.77;;;5.13;100.00
62038;BME280;47991;42.974;12.082;2024-03-08T08:54:59;97755.41;;;5.31;100.00
62038;BME280;47991;42.974;12.082;2024-03-08T08:57:27;97748.76;;;5.53;100.00
62038;BME280;47991;42.974;12.082;2024-03-08T08:59:54;97749.69;;;5.65;99.97
62038;BME280;47991;42.974;12.082;2024-03-08T09:02:21;97746.95;;;5.58;99.90
62038;BME280;47991;42.974;12.082;2024-03-08T09:04:48;97742.10;;;5.71;99.31
62038;BME280;47991;42.974;12.082;2024-03-08T09:07:15;97739.52;;;5.82;99.22
62038;BME280;47991;42.974;12.082;2024-03-08T09:09:45;97745.61;;;5.88;98.91
62038;BME280;47991;42.974;12.082;2024-03-08T09:12:12;97745.68;;;5.80;96.83
62038;BME280;47991;42.974;12.082;2024-03-08T09:14:40;97745.07;;;5.91;97.89
62038;BME280;47991;42.974;12.082;2024-03-08T09:17:08;97742.59;;;5.94;97.92
62038;BME280;47991;42.974;12.082;2024-03-08T09:19:35;97736.84;;;6.24;97.21
62038;BME280;47991;42.974;12.082;2024-03-08T09:22:04;97735.19;;;6.30;95.01
62038;BME280;47991;42.974;12.082;2024-03-08T09:24:31;97732.61;;;6.26;94.64
62038;BME280;47991;42.974;12.082;2024-03-08T09:26:58;97732.44;;;6.66;97.78
62038;BME280;47991;42.974;12.082;2024-03-08T09:29:25;97733.96;;;6.97;96.26
62038;BME280;47991;42.974;12.082;2024-03-08T09:31:52;97734.71;;;7.05;94.66
62038;BME280;47991;42.974;12.082;2024-03-08T09:34:19;97734.23;;;7.25;93.27
62038;BME280;47991;42.974;12.082;2024-03-08T09:36:46;97728.58;;;7.39;92.13
62038;BME280;47991;42.974;12.082;2024-03-08T09:39:13;97725.70;;;7.52;91.28
62038;BME280;47991;42.974;12.082;2024-03-08T09:41:47;97725.41;;;7.79;89.79
62038;BME280;47991;42.974;12.082;2024-03-08T09:44:17;97725.73;;;7.81;91.52
62038;BME280;47991;42.974;12.082;2024-03-08T09:46:46;97724.41;;;8.05;89.54
62038;BME280;47991;42.974;12.082;2024-03-08T09:49:19;97724.75;;;7.86;89.16
62038;BME280;47991;42.974;12.082;2024-03-08T09:51:46;97732.02;;;7.74;89.29
62038;BME280;47991;42.974;12.082;2024-03-08T09:54:14;97725.83;;;7.85;88.38
62038;BME280;47991;42.974;12.082;2024-03-08T09:56:44;97724.95;;;7.76;87.96
62038;BME280;47991;42.974;12.082;2024-03-08T09:59:12;97722.73;;;7.81;88.91
62038;BME280;47991;42.974;12.082;2024-03-08T10:01:54;97718.89;;;7.70;89.13
62038;BME280;47991;42.974;12.082;2024-03-08T10:04:22;97716.86;;;7.94;89.16
62038;BME280;47991;42.974;12.082;2024-03-08T10:06:50;97716.09;;;8.34;90.55
62038;BME280;47991;42.974;12.082;2024-03-08T10:09:17;97712.84;;;8.65;89.38
62038;BME280;47991;42.974;12.082;2024-03-08T10:11:45;97711.23;;;8.97;88.24
62038;BME280;47991;42.974;12.082;2024-03-08T10:14:12;97700.91;;;9.25;86.60
62038;BME280;47991;42.974;12.082;2024-03-08T10:16:39;97701.73;;;9.27;84.01
62038;BME280;47991;42.974;12.082;2024-03-08T10:19:07;97703.63;;;8.99;84.20
62038;BME280;47991;42.974;12.082;2024-03-08T10:21:34;97704.82;;;9.08;83.31
62038;BME280;47991;42.974;12.082;2024-03-08T10:24:05;97705.64;;;9.03;82.25
62038;BME280;47991;42.974;12.082;2024-03-08T10:26:32;97704.38;;;9.05;83.02
62038;BME280;47991;42.974;12.082;2024-03-08T10:28:59;97701.16;;;9.21;83.94
62038;BME280;47991;42.974;12.082;2024-03-08T10:31:26;97703.09;;;9.14;82.67
62038;BME280;47991;42.974;12.082;2024-03-08T10:33:53;97700.59;;;9.16;84.10
62038;BME280;47991;42.974;12.082;2024-03-08T10:36:20;97698.41;;;9.54;84.95
62038;BME280;47991;42.974;12.082;2024-03-08T10:38:51;97689.80;;;10.00;83.89
62038;BME280;47991;42.974;12.082;2024-03-08T10:41:20;97690.64;;;10.27;80.89
62038;BME280;47991;42.974;12.082;2024-03-08T10:46:48;97689.55;;;10.41;80.46
62038;BME280;47991;42.974;12.082;2024-03-08T10:49:23;97690.70;;;10.25;81.02
62038;BME280;47991;42.974;12.082;2024-03-08T10:51:53;97689.73;;;10.22;80.45
62038;BME280;47991;42.974;12.082;2024-03-08T10:54:21;97689.45;;;10.32;81.20
62038;BME280;47991;42.974;12.082;2024-03-08T10:56:49;97692.70;;;10.54;80.15
62038;BME280;47991;42.974;12.082;2024-03-08T10:59:19;97686.49;;;10.85;79.19
62038;BME280;47991;42.974;12.082;2024-03-08T11:01:46;97678.02;;;11.13;80.41
62038;BME280;47991;42.974;12.082;2024-03-08T11:04:14;97671.98;;;11.45;77.43
62038;BME280;47991;42.974;12.082;2024-03-08T11:06:43;97674.81;;;11.57;75.34
62038;BME280;47991;42.974;12.082;2024-03-08T11:09:32;97670.27;;;11.75;76.04
62038;BME280;47991;42.974;12.082;2024-03-08T11:12:18;97668.99;;;11.98;77.85
62038;BME280;47991;42.974;12.082;2024-03-08T11:14:48;97661.13;;;12.20;73.44
62038;BME280;47991;42.974;12.082;2024-03-08T11:17:21;97662.41;;;12.28;74.91
62038;BME280;47991;42.974;12.082;2024-03-08T11:19:49;97656.75;;;12.37;70.84
62038;BME280;47991;42.974;12.082;2024-03-08T11:22:28;97655.19;;;12.21;72.55
62038;BME280;47991;42.974;12.082;2024-03-08T11:24:59;97655.74;;;11.50;74.49
62038;BME280;47991;42.974;12.082;2024-03-08T11:27:29;97644.95;;;11.65;76.16
62038;BME280;47991;42.974;12.082;2024-03-08T11:30:03;97646.12;;;12.03;74.31
62038;BME280;47991;42.974;12.082;2024-03-08T11:32:38;97646.64;;;12.23;74.03
62038;BME280;47991;42.974;12.082;2024-03-08T11:35:17;97641.49;;;12.23;69.76
62038;BME280;47991;42.974;12.082;2024-03-08T11:37:45;97640.30;;;12.32;69.35
62038;BME280;47991;42.974;12.082;2024-03-08T11:40:13;97640.10;;;12.46;67.21
62038;BME280;47991;42.974;12.082;2024-03-08T11:42:47;97636.46;;;12.72;68.62
62038;BME280;47991;42.974;12.082;2024-03-08T11:45:18;97629.14;;;13.04;67.65
62038;BME280;47991;42.974;12.082;2024-03-08T11:47:47;97621.72;;;13.08;63.32
62038;BME280;47991;42.974;12.082;2024-03-08T11:50:15;97619.80;;;13.12;65.11
62038;BME280;47991;42.974;12.082;2024-03-08T11:52:43;97617.36;;;12.93;59.30
62038;BME280;47991;42.974;12.082;2024-03-08T11:55:11;97608.90;;;13.18;56.53
62038;BME280;47991;42.974;12.082;2024-03-08T11:57:39;97602.48;;;13.40;53.91
62038;BME280;47991;42.974;12.082;2024-03-08T12:00:15;97597.64;;;13.19;54.97
62038;BME280;47991;42.974;12.082;2024-03-08T12:03:09;97593.30;;;13.26;48.05
62038;BME280;47991;42.974;12.082;2024-03-08T12:05:39;97589.10;;;13.59;52.38
62038;BME280;47991;42.974;12.082;2024-03-08T12:08:07;97590.64;;;14.00;51.46
62038;BME280;47991;42.974;12.082;2024-03-08T12:10:36;97580.31;;;14.08;49.89
62038;BME280;47991;42.974;12.082;2024-03-08T12:13:04;97582.21;;;13.98;47.59
62038;BME280;47991;42.974;12.082;2024-03-08T12:15:39;97577.80;;;14.05;49.44
62038;BME280;47991;42.974;12.082;2024-03-08T12:18:09;97571.23;;;14.09;49.08
62038;BME280;47991;42.974;12.082;2024-03-08T12:20:38;97565.55;;;14.01;47.17
62038;BME280;47991;42.974;12.082;2024-03-08T12:23:13;97562.52;;;14.17;49.06
62038;BME280;47991;42.974;12.082;2024-03-08T12:25:42;97554.58;;;14.31;49.18
62038;BME280;47991;42.974;12.082;2024-03-08T12:28:11;97545.59;;;14.40;49.01
62038;BME280;47991;42.974;12.082;2024-03-08T12:30:51;97545.98;;;14.47;49.21
62038;BME280;47991;42.974;12.082;2024-03-08T12:33:21;97547.52;;;14.44;50.25
62038;BME280;47991;42.974;12.082;2024-03-08T12:35:53;97537.33;;;14.49;48.77
62038;BME280;47991;42.974;12.082;2024-03-08T12:38:22;97532.80;;;14.59;49.60
62038;BME280;47991;42.974;12.082;2024-03-08T12:40:59;97537.47;;;14.54;49.03
62038;BME280;47991;42.974;12.082;2024-03-08T12:43:26;97533.86;;;14.48;50.26
62038;BME280;47991;42.974;12.082;2024-03-08T12:45:57;97524.59;;;14.52;50.00
62038;BME280;47991;42.974;12.082;2024-03-08T12:48:24;97517.33;;;14.36;49.46
62038;BME280;47991;42.974;12.082;2024-03-08T12:50:52;97514.64;;;14.33;50.79
62038;BME280;47991;42.974;12.082;2024-03-08T12:53:22;97504.23;;;14.35;50.55
62038;BME280;47991;42.974;12.082;2024-03-08T12:55:52;97501.80;;;14.23;49.15
62038;BME280;47991;42.974;12.082;2024-03-08T12:58:20;97501.86;;;14.06;50.78
62038;BME280;47991;42.974;12.082;2024-03-08T13:00:49;97502.74;;;13.79;50.07
62038;BME280;47991;42.974;12.082;2024-03-08T13:03:16;97502.44;;;13.69;50.54
62038;BME280;47991;42.974;12.082;2024-03-08T13:05:43;97501.31;;;13.67;50.73